createdAt,value
2022-10-26T00:02:23.591Z,9.00
2022-10-26T00:05:15.099Z,7.80
2022-10-26T00:08:08.805Z,6.73
2022-10-26T00:10:59.084Z,7.73
2022-10-26T00:13:51.411Z,9.27
2022-10-26T00:19:55.792Z,9.10
2022-10-26T00:22:52.311Z,7.10
2022-10-26T00:25:42.136Z,9.37
2022-10-26T00:28:32.208Z,8.60
2022-10-26T00:31:22.642Z,8.50
2022-10-26T00:34:17.722Z,9.80
2022-10-26T00:37:07.526Z,9.10
2022-10-26T00:40:05.274Z,10.70
2022-10-26T00:42:55.076Z,12.47
2022-10-26T00:45:47.830Z,11.10
2022-10-26T00:48:42.505Z,10.40
2022-10-26T00:51:35.366Z,10.57
2022-10-26T00:54:26.197Z,9.97
2022-10-26T00:57:19.737Z,8.83
2022-10-26T01:00:11.792Z,8.63
2022-10-26T01:03:02.944Z,8.57
2022-10-26T01:05:51.453Z,9.70
2022-10-26T01:08:43.475Z,12.33
2022-10-26T01:11:32.088Z,9.60
2022-10-26T01:14:21.155Z,11.30
2022-10-26T01:17:21.927Z,8.70
2022-10-26T01:20:22.877Z,12.73
2022-10-26T01:23:19.248Z,9.37
2022-10-26T01:26:21.929Z,11.33
2022-10-26T01:29:23.424Z,9.30
2022-10-26T01:32:23.776Z,11.20
2022-10-26T01:35:15.202Z,10.37
2022-10-26T01:38:14.733Z,9.60
2022-10-26T01:41:06.084Z,11.50
2022-10-26T01:44:00.382Z,10.33
2022-10-26T01:46:50.677Z,11.57
2022-10-26T01:49:43.658Z,11.30
2022-10-26T01:52:36.299Z,10.20
2022-10-26T01:55:47.889Z,10.77
2022-10-26T01:58:47.995Z,8.53
2022-10-26T02:01:50.166Z,8.80
2022-10-26T02:04:45.058Z,10.53
2022-10-26T02:07:42.052Z,8.50
2022-10-26T02:10:35.138Z,9.97
2022-10-26T02:13:27.295Z,11.37
2022-10-26T02:16:25.173Z,9.90
2022-10-26T02:19:29.009Z,10.57
2022-10-26T02:22:27.425Z,8.87
2022-10-26T02:25:17.833Z,12.37
2022-10-26T02:28:22.429Z,9.20
2022-10-26T02:31:11.769Z,8.07
2022-10-26T02:34:04.204Z,8.93
2022-10-26T02:36:54.966Z,10.90
2022-10-26T02:39:45.193Z,8.60
2022-10-26T02:42:34.286Z,9.73
2022-10-26T02:45:26.367Z,11.37
2022-10-26T02:48:19.164Z,10.37
2022-10-26T02:51:11.581Z,12.97
2022-10-26T02:54:04.494Z,9.47
2022-10-26T02:56:57.816Z,9.83
2022-10-26T02:59:52.534Z,8.77
2022-10-26T03:02:42.437Z,9.37
2022-10-26T03:05:34.105Z,10.20
2022-10-26T03:11:25.032Z,11.53
2022-10-26T03:14:29.197Z,11.20
2022-10-26T03:17:17.662Z,11.63
2022-10-26T03:20:08.224Z,11.43
2022-10-26T03:22:59.452Z,10.00
2022-10-26T03:25:49.198Z,11.23
2022-10-26T03:28:39.599Z,12.20
2022-10-26T03:31:32.459Z,13.00
2022-10-26T03:34:25.126Z,12.13
2022-10-26T03:37:13.659Z,10.60
2022-10-26T03:40:04.054Z,10.40
2022-10-26T03:42:52.812Z,9.63
2022-10-26T03:45:42.617Z,9.60
2022-10-26T03:48:32.470Z,9.47
2022-10-26T03:51:22.226Z,12.03
2022-10-26T03:54:15.333Z,11.13
2022-10-26T03:57:03.850Z,14.90
2022-10-26T03:59:52.377Z,11.00
2022-10-26T04:02:46.872Z,11.13
2022-10-26T04:05:37.001Z,11.40
2022-10-26T04:08:27.132Z,12.10
2022-10-26T04:11:17.086Z,12.60
2022-10-26T04:14:05.555Z,13.67
2022-10-26T04:16:54.032Z,12.20
2022-10-26T04:19:45.910Z,14.50
2022-10-26T04:22:37.162Z,11.70
2022-10-26T04:25:32.859Z,11.30
2022-10-26T04:28:21.978Z,13.30
2022-10-26T04:31:10.537Z,12.83
2022-10-26T04:34:13.967Z,15.90
2022-10-26T04:37:09.324Z,15.10
2022-10-26T04:40:04.173Z,13.77
2022-10-26T04:42:55.617Z,20.27
2022-10-26T04:45:55.761Z,14.83
2022-10-26T04:48:48.533Z,15.27
2022-10-26T04:51:38.186Z,16.03
2022-10-26T04:54:29.451Z,15.07
2022-10-26T04:57:32.697Z,19.90
2022-10-26T05:00:24.189Z,17.30
2022-10-26T05:03:13.924Z,16.73
2022-10-26T05:06:13.107Z,16.53
2022-10-26T05:09:01.564Z,14.00
2022-10-26T05:11:50.005Z,15.60
2022-10-26T05:14:41.101Z,14.90
2022-10-26T05:17:31.010Z,17.57
2022-10-26T05:20:28.905Z,16.67
2022-10-26T05:23:19.338Z,17.70
2022-10-26T05:26:16.086Z,18.73
2022-10-26T05:29:09.089Z,16.03
2022-10-26T05:32:02.858Z,18.60
2022-10-26T05:34:51.311Z,18.70
2022-10-26T05:37:39.808Z,21.63
2022-10-26T05:40:28.308Z,19.17
2022-10-26T05:43:19.690Z,21.07
2022-10-26T05:46:09.191Z,19.20
2022-10-26T05:49:00.305Z,20.60
2022-10-26T05:51:51.145Z,20.80
2022-10-26T05:54:39.612Z,23.97
2022-10-26T05:57:29.384Z,24.73
2022-10-26T06:00:18.857Z,28.90
2022-10-26T06:03:16.375Z,19.20
2022-10-26T06:06:07.462Z,23.07
2022-10-26T06:08:58.403Z,19.13
2022-10-26T06:11:47.204Z,21.90
2022-10-26T06:14:36.300Z,21.80
2022-10-26T06:17:34.266Z,20.97
2022-10-26T06:20:33.597Z,24.27
2022-10-26T06:23:40.184Z,21.33
2022-10-26T06:26:32.771Z,23.30
2022-10-26T06:29:24.623Z,21.73
2022-10-26T06:32:13.628Z,21.70
2022-10-26T06:35:10.220Z,20.70
2022-10-26T06:38:01.503Z,28.87
2022-10-26T06:40:52.969Z,20.17
2022-10-26T06:43:41.883Z,20.13
2022-10-26T06:46:34.228Z,17.63
2022-10-26T06:49:26.264Z,19.77
2022-10-26T06:52:17.933Z,19.70
2022-10-26T06:55:06.895Z,17.07
2022-10-26T06:57:56.820Z,17.13
2022-10-26T07:00:45.893Z,17.90
2022-10-26T07:03:34.340Z,17.53
2022-10-26T07:06:22.851Z,24.10
2022-10-26T07:09:23.360Z,22.37
2022-10-26T07:12:11.895Z,20.87
2022-10-26T07:15:01.806Z,17.57
2022-10-26T07:17:52.465Z,19.20
2022-10-26T07:20:41.824Z,20.20
2022-10-26T07:26:25.525Z,18.00
2022-10-26T07:29:14.333Z,19.47
2022-10-26T07:32:04.453Z,18.37
2022-10-26T07:34:52.932Z,17.27
2022-10-26T07:37:41.422Z,20.20
2022-10-26T07:40:30.118Z,19.90
2022-10-26T07:43:18.761Z,17.90
2022-10-26T07:46:07.419Z,16.47
2022-10-26T07:48:57.425Z,18.03
2022-10-26T07:51:45.978Z,16.37
2022-10-26T07:54:34.674Z,18.93
2022-10-26T07:57:23.161Z,16.63
2022-10-26T08:00:12.306Z,17.40
2022-10-26T08:03:03.433Z,19.93
2022-10-26T08:05:55.891Z,17.10
2022-10-26T08:08:46.650Z,13.27
2022-10-26T08:11:37.033Z,16.17
2022-10-26T08:14:27.249Z,15.70
2022-10-26T08:17:15.772Z,16.63
2022-10-26T08:20:04.312Z,16.73
2022-10-26T08:22:54.197Z,17.10
2022-10-26T08:25:44.840Z,15.87
2022-10-26T08:28:33.478Z,18.23
2022-10-26T08:31:21.969Z,16.37
2022-10-26T08:34:10.612Z,17.90
2022-10-26T08:36:59.138Z,14.00
2022-10-26T08:39:51.907Z,15.17
2022-10-26T08:42:46.085Z,12.23
2022-10-26T08:45:37.171Z,16.67
2022-10-26T08:48:27.253Z,12.70
2022-10-26T08:51:18.413Z,14.83
2022-10-26T08:54:13.808Z,16.17
2022-10-26T08:57:07.781Z,17.03
2022-10-26T08:59:59.733Z,13.53
2022-10-26T09:02:51.175Z,14.20
2022-10-26T09:05:45.281Z,15.20
2022-10-26T09:08:39.189Z,20.10
2022-10-26T09:11:36.306Z,13.97
2022-10-26T09:14:36.425Z,13.20
2022-10-26T09:17:30.225Z,17.60
2022-10-26T09:20:26.762Z,11.80
2022-10-26T09:23:22.645Z,12.40
2022-10-26T09:26:15.004Z,11.70
2022-10-26T09:29:05.250Z,10.40
2022-10-26T09:31:56.382Z,13.00
2022-10-26T09:34:47.983Z,13.00
2022-10-26T09:37:38.860Z,9.50
2022-10-26T09:40:29.488Z,8.93
2022-10-26T09:43:20.279Z,10.47
2022-10-26T09:46:11.982Z,11.03
2022-10-26T09:49:06.134Z,7.90
2022-10-26T09:51:54.629Z,8.10
2022-10-26T09:54:43.270Z,8.40
2022-10-26T09:57:32.046Z,13.53
2022-10-26T10:00:26.913Z,9.97
2022-10-26T10:03:19.752Z,7.00
2022-10-26T10:06:20.283Z,10.53
2022-10-26T10:09:10.985Z,8.00
2022-10-26T10:12:02.507Z,9.17
2022-10-26T10:15:01.157Z,7.03
2022-10-26T10:17:53.054Z,7.47
2022-10-26T10:20:41.878Z,9.93
2022-10-26T10:23:33.419Z,10.40
2022-10-26T10:26:22.212Z,9.03
2022-10-26T10:29:18.049Z,6.33
2022-10-26T10:32:06.781Z,6.57
2022-10-26T10:34:57.545Z,6.77
2022-10-26T10:37:46.865Z,6.03
2022-10-26T10:40:36.754Z,8.27
2022-10-26T10:43:25.676Z,5.83
2022-10-26T10:46:19.367Z,6.60
2022-10-26T10:49:08.773Z,8.23
2022-10-26T10:51:57.857Z,7.00
2022-10-26T10:54:49.681Z,9.27
2022-10-26T10:57:45.546Z,7.33
2022-10-26T11:00:37.826Z,6.60
2022-10-26T11:03:39.245Z,7.93
2022-10-26T11:06:29.548Z,5.53
2022-10-26T11:09:19.951Z,6.13
2022-10-26T11:12:11.175Z,8.10
2022-10-26T11:15:02.216Z,6.93
2022-10-26T11:17:54.656Z,6.50
2022-10-26T11:20:47.174Z,5.77
2022-10-26T11:23:39.765Z,6.97
2022-10-26T11:26:31.143Z,6.20
2022-10-26T11:29:24.095Z,5.87
2022-10-26T11:32:17.114Z,6.57
2022-10-26T11:35:11.151Z,8.40
2022-10-26T11:38:04.691Z,7.13
2022-10-26T11:40:56.405Z,5.00
2022-10-26T11:43:46.822Z,4.40
2022-10-26T11:46:38.883Z,4.90
2022-10-26T11:49:32.788Z,4.20
2022-10-26T11:52:24.074Z,4.73
2022-10-26T11:55:13.078Z,4.90
2022-10-26T11:58:02.826Z,4.27
2022-10-26T12:00:53.454Z,6.43
2022-10-26T12:03:45.582Z,4.37
2022-10-26T12:06:36.087Z,3.50
2022-10-26T12:09:27.647Z,3.63
2022-10-26T12:12:21.499Z,4.25
2022-10-26T12:15:18.488Z,4.05
2022-10-26T12:18:16.031Z,3.28
2022-10-26T12:21:06.937Z,5.05
2022-10-26T12:23:57.491Z,4.53
2022-10-26T12:26:55.885Z,3.58
2022-10-26T12:29:49.106Z,3.95
2022-10-26T12:32:52.790Z,3.35
2022-10-26T12:35:45.025Z,3.90
2022-10-26T12:38:51.413Z,3.20
2022-10-26T12:41:41.268Z,3.72
2022-10-26T12:44:33.813Z,2.85
2022-10-26T12:47:37.194Z,3.22
2022-10-26T12:50:26.255Z,2.83
2022-10-26T12:53:17.307Z,2.60
2022-10-26T12:56:06.776Z,2.78
2022-10-26T12:59:07.577Z,3.70
2022-10-26T13:02:06.358Z,3.08
2022-10-26T13:05:12.496Z,4.68
2022-10-26T13:08:04.557Z,5.63
2022-10-26T13:11:03.515Z,2.53
2022-10-26T13:13:55.913Z,3.47
2022-10-26T13:16:47.618Z,2.50
2022-10-26T13:19:41.172Z,3.33
2022-10-26T13:22:30.349Z,5.03
2022-10-26T13:25:23.054Z,3.10
2022-10-26T13:28:26.399Z,5.27
2022-10-26T13:31:19.503Z,2.63
2022-10-26T13:34:17.533Z,3.03
2022-10-26T13:37:09.673Z,4.03
2022-10-26T13:39:59.615Z,4.03
2022-10-26T13:42:49.680Z,4.17
2022-10-26T13:45:43.318Z,2.70
2022-10-26T13:48:35.385Z,2.80
2022-10-26T13:51:26.947Z,4.70
2022-10-26T13:54:23.443Z,3.57
2022-10-26T13:57:18.278Z,4.23
2022-10-26T14:00:10.369Z,4.70
2022-10-26T14:02:58.901Z,3.50
2022-10-26T14:05:49.369Z,3.87
2022-10-26T14:08:42.281Z,4.20
2022-10-26T14:11:36.076Z,4.07
2022-10-26T14:14:28.653Z,3.83
2022-10-26T14:17:20.793Z,4.17
2022-10-26T14:20:18.560Z,3.73
2022-10-26T14:23:07.048Z,3.37
2022-10-26T14:26:00.148Z,3.50
2022-10-26T14:28:50.433Z,3.20
2022-10-26T14:31:38.930Z,4.57
2022-10-26T14:34:27.482Z,4.60
2022-10-26T14:37:19.484Z,3.60
2022-10-26T14:40:08.850Z,3.60
2022-10-26T14:42:59.814Z,9.23
2022-10-26T14:45:51.262Z,3.10
2022-10-26T14:48:42.509Z,2.93
2022-10-26T14:51:31.429Z,4.73
2022-10-26T14:54:22.080Z,2.83
2022-10-26T14:57:30.713Z,2.80
2022-10-26T15:00:21.198Z,3.00
2022-10-26T15:03:16.013Z,2.47
2022-10-26T15:06:19.370Z,2.93
2022-10-26T15:09:07.915Z,4.17
2022-10-26T15:11:56.461Z,3.03
2022-10-26T15:14:45.119Z,4.33
2022-10-26T15:17:38.242Z,3.00
2022-10-26T15:20:28.305Z,3.30
2022-10-26T15:23:18.092Z,2.87
2022-10-26T15:26:06.774Z,3.30
2022-10-26T15:28:55.857Z,5.50
2022-10-26T15:31:44.343Z,4.33
2022-10-26T15:34:34.248Z,2.87
2022-10-26T15:37:22.805Z,3.27
2022-10-26T15:40:11.747Z,6.00
2022-10-26T15:43:01.603Z,3.20
2022-10-26T15:45:52.082Z,5.00
2022-10-26T15:48:40.703Z,4.40
2022-10-26T15:51:30.924Z,5.10
2022-10-26T15:54:19.419Z,4.13
2022-10-26T15:57:08.314Z,2.87
2022-10-26T15:59:56.794Z,3.13
2022-10-26T16:02:45.951Z,2.87
2022-10-26T16:05:34.501Z,3.83
2022-10-26T16:08:24.502Z,5.40
2022-10-26T16:11:12.981Z,3.07
2022-10-26T16:14:03.747Z,5.27
2022-10-26T16:16:53.625Z,5.10
2022-10-26T16:19:42.131Z,4.00
2022-10-26T16:22:32.682Z,3.00
2022-10-26T16:25:26.097Z,2.93
2022-10-26T16:28:17.696Z,4.77
2022-10-26T16:31:07.060Z,3.13
2022-10-26T16:33:57.957Z,3.90
2022-10-26T16:36:48.697Z,3.60
2022-10-26T16:39:37.205Z,4.00
2022-10-26T16:42:28.339Z,5.00
2022-10-26T16:45:17.029Z,4.57
2022-10-26T16:48:09.412Z,3.73
2022-10-26T16:50:57.926Z,3.03
2022-10-26T16:53:48.252Z,3.80
2022-10-26T16:56:37.240Z,7.00
2022-10-26T16:59:27.073Z,4.97
2022-10-26T17:02:15.975Z,4.13
2022-10-26T17:05:07.191Z,6.33
2022-10-26T17:07:56.264Z,4.90
2022-10-26T17:10:46.036Z,4.43
2022-10-26T17:13:34.586Z,5.47
2022-10-26T17:16:25.425Z,5.57
2022-10-26T17:19:14.001Z,4.97
2022-10-26T17:22:04.985Z,3.73
2022-10-26T17:24:56.460Z,7.60
2022-10-26T17:27:46.793Z,3.83
2022-10-26T17:30:36.129Z,4.60
2022-10-26T17:33:25.998Z,5.17
2022-10-26T17:36:16.717Z,4.17
2022-10-26T17:39:05.320Z,6.10
2022-10-26T17:41:53.902Z,5.70
2022-10-26T17:44:43.944Z,4.60
2022-10-26T17:47:32.459Z,6.20
2022-10-26T17:50:22.272Z,4.93
2022-10-26T17:53:10.817Z,4.90
2022-10-26T17:56:02.794Z,8.17
2022-10-26T17:58:54.632Z,4.80
2022-10-26T18:01:43.202Z,7.23
2022-10-26T18:04:31.774Z,4.93
2022-10-26T18:07:21.597Z,5.83
2022-10-26T18:10:26.242Z,6.37
2022-10-26T18:13:19.198Z,6.17
2022-10-26T18:16:09.688Z,8.73
2022-10-26T18:19:00.688Z,8.57
2022-10-26T18:21:50.033Z,5.20
2022-10-26T18:24:39.932Z,4.73
2022-10-26T18:27:28.563Z,5.10
2022-10-26T18:30:17.126Z,5.63
2022-10-26T18:33:05.749Z,4.80
2022-10-26T18:35:54.248Z,5.97
2022-10-26T18:38:43.117Z,5.93
2022-10-26T18:41:33.106Z,5.83
2022-10-26T18:44:22.664Z,4.30
2022-10-26T18:47:11.180Z,5.40
2022-10-26T18:50:00.089Z,4.97
2022-10-26T18:52:48.566Z,6.10
2022-10-26T18:55:37.067Z,5.60
2022-10-26T18:58:26.896Z,4.77
2022-10-26T19:01:16.281Z,6.37
2022-10-26T19:04:05.806Z,9.30
2022-10-26T19:06:54.265Z,6.33
2022-10-26T19:09:42.770Z,6.60
2022-10-26T19:12:31.403Z,5.00
2022-10-26T19:15:21.272Z,7.27
2022-10-26T19:18:09.743Z,7.40
2022-10-26T19:21:01.753Z,6.30
2022-10-26T19:23:50.997Z,5.03
2022-10-26T19:26:43.139Z,6.73
2022-10-26T19:29:32.409Z,5.30
2022-10-26T19:32:24.660Z,7.47
2022-10-26T19:35:21.419Z,5.13
2022-10-26T19:38:10.979Z,5.60
2022-10-26T19:41:06.458Z,7.53
2022-10-26T19:44:02.497Z,5.97
2022-10-26T19:46:54.343Z,8.97
2022-10-26T19:49:50.873Z,6.20
2022-10-26T19:52:47.406Z,4.90
2022-10-26T19:55:38.117Z,5.07
2022-10-26T19:58:27.090Z,4.70
2022-10-26T20:01:16.583Z,5.73
2022-10-26T20:04:10.655Z,5.13
2022-10-26T20:07:05.445Z,7.40
2022-10-26T20:09:55.975Z,6.37
2022-10-26T20:12:54.544Z,5.53
2022-10-26T20:15:43.417Z,7.53
2022-10-26T20:18:33.874Z,6.40
2022-10-26T20:21:27.533Z,4.70
2022-10-26T20:24:18.730Z,4.73
2022-10-26T20:27:10.226Z,4.90
2022-10-26T20:30:01.979Z,4.80
2022-10-26T20:32:57.559Z,5.27
2022-10-26T20:35:47.107Z,5.60
2022-10-26T20:38:35.825Z,4.80
2022-10-26T20:41:35.186Z,4.97
2022-10-26T20:44:26.283Z,9.57
2022-10-26T20:47:18.892Z,4.57
2022-10-26T20:50:10.759Z,5.27
2022-10-26T20:53:02.956Z,10.00
2022-10-26T20:55:53.541Z,6.90
2022-10-26T20:58:45.532Z,5.60
2022-10-26T21:01:37.613Z,9.20
2022-10-26T21:04:29.571Z,5.77
2022-10-26T21:07:23.203Z,7.53
2022-10-26T21:10:13.879Z,5.40
2022-10-26T21:13:05.965Z,8.03
2022-10-26T21:15:57.607Z,6.20
2022-10-26T21:18:47.553Z,5.90
2022-10-26T21:21:39.629Z,7.10
2022-10-26T21:24:37.153Z,6.57
2022-10-26T21:27:33.150Z,6.90
2022-10-26T21:30:21.652Z,8.17
2022-10-26T21:33:12.707Z,7.33
2022-10-26T21:36:03.031Z,6.60
2022-10-26T21:38:54.368Z,8.13
2022-10-26T21:41:44.836Z,6.50
2022-10-26T21:44:41.449Z,6.93
2022-10-26T21:47:37.612Z,6.70
2022-10-26T21:50:27.422Z,6.57
2022-10-26T21:53:17.006Z,8.80
2022-10-26T21:56:13.786Z,7.27
2022-10-26T21:59:02.291Z,7.43
2022-10-26T22:01:56.327Z,9.50
2022-10-26T22:04:45.949Z,8.17
2022-10-26T22:07:39.398Z,7.97
2022-10-26T22:10:31.157Z,7.80
2022-10-26T22:13:25.107Z,8.67
2022-10-26T22:16:17.328Z,8.20
2022-10-26T22:19:07.143Z,8.27
2022-10-26T22:21:59.682Z,10.20
2022-10-26T22:24:56.874Z,10.80
2022-10-26T22:27:48.711Z,10.30
2022-10-26T22:30:40.180Z,12.90
2022-10-26T22:33:28.750Z,10.93
2022-10-26T22:36:19.933Z,10.37
2022-10-26T22:39:08.405Z,10.17
2022-10-26T22:41:58.205Z,12.33
2022-10-26T22:44:48.375Z,11.67
2022-10-26T22:47:36.946Z,9.50
2022-10-26T22:50:25.471Z,10.67
2022-10-26T22:53:16.664Z,9.53
2022-10-26T22:56:05.676Z,10.90
2022-10-26T22:58:55.499Z,11.07
2022-10-26T23:01:51.068Z,10.07
2022-10-26T23:07:43.841Z,10.90
2022-10-26T23:10:33.061Z,12.30
2022-10-26T23:13:23.234Z,11.70
2022-10-26T23:16:14.996Z,11.10
2022-10-26T23:19:05.259Z,11.70
2022-10-26T23:21:56.590Z,11.90
2022-10-26T23:24:47.312Z,11.97
2022-10-26T23:27:46.045Z,11.30
2022-10-26T23:30:40.286Z,11.50
2022-10-26T23:33:34.129Z,10.50
2022-10-26T23:36:30.507Z,10.47
2022-10-26T23:39:22.121Z,13.10
2022-10-26T23:42:17.210Z,12.67
2022-10-26T23:45:08.848Z,12.17
2022-10-26T23:48:13.931Z,11.70
2022-10-26T23:51:06.123Z,10.57
2022-10-26T23:53:58.752Z,11.03
2022-10-26T23:56:53.080Z,11.50
2022-10-26T23:59:43.054Z,10.50
